createdAt,value
2017-12-10T00:02:03.953Z,6.07
2017-12-10T00:04:34.052Z,5.63
2017-12-10T00:07:04.852Z,6.70
2017-12-10T00:09:33.495Z,6.10
2017-12-10T00:12:05.758Z,5.77
2017-12-10T00:14:38.191Z,6.93
2017-12-10T00:17:09.444Z,6.27
2017-12-10T00:19:38.154Z,6.70
2017-12-10T00:22:06.875Z,6.10
2017-12-10T00:24:35.580Z,6.10
2017-12-10T00:27:03.931Z,6.67
2017-12-10T00:29:32.290Z,6.70
2017-12-10T00:32:00.914Z,6.10
2017-12-10T00:34:29.564Z,6.77
2017-12-10T00:36:58.126Z,6.93
2017-12-10T00:39:26.778Z,6.27
2017-12-10T00:41:55.489Z,7.27
2017-12-10T00:44:23.827Z,7.27
2017-12-10T00:46:52.533Z,7.40
2017-12-10T00:49:21.156Z,6.77
2017-12-10T00:51:49.494Z,7.70
2017-12-10T00:54:18.184Z,8.50
2017-12-10T00:56:46.848Z,8.33
2017-12-10T00:59:15.710Z,8.13
2017-12-10T01:01:53.470Z,7.43
2017-12-10T01:04:39.059Z,8.10
2017-12-10T01:07:09.006Z,7.43
2017-12-10T01:09:37.460Z,8.00
2017-12-10T01:12:06.127Z,8.00
2017-12-10T01:14:34.242Z,7.33
2017-12-10T01:17:02.601Z,8.17
2017-12-10T01:19:30.921Z,8.17
2017-12-10T01:21:59.306Z,8.93
2017-12-10T01:24:27.661Z,9.23
2017-12-10T01:26:56.370Z,8.00
2017-12-10T01:29:24.690Z,7.93
2017-12-10T01:31:53.017Z,7.77
2017-12-10T01:34:21.406Z,7.90
2017-12-10T01:36:50.033Z,8.70
2017-12-10T01:39:18.666Z,8.63
2017-12-10T01:41:47.036Z,8.27
2017-12-10T01:44:15.362Z,9.33
2017-12-10T01:46:43.736Z,8.63
2017-12-10T01:49:12.079Z,8.80
2017-12-10T01:51:40.441Z,9.20
2017-12-10T01:54:08.771Z,7.93
2017-12-10T01:56:37.148Z,8.67
2017-12-10T01:59:05.482Z,8.87
2017-12-10T02:01:33.623Z,8.83
2017-12-10T02:04:01.998Z,9.60
2017-12-10T02:06:30.337Z,8.80
2017-12-10T02:08:59.166Z,9.00
2017-12-10T02:11:27.486Z,9.17
2017-12-10T02:13:55.945Z,9.77
2017-12-10T02:16:24.282Z,8.67
2017-12-10T02:18:52.618Z,8.87
2017-12-10T02:21:21.010Z,9.03
2017-12-10T02:23:49.363Z,8.57
2017-12-10T02:26:17.766Z,8.67
2017-12-10T02:28:46.124Z,9.57
2017-12-10T02:31:14.508Z,10.07
2017-12-10T02:33:42.860Z,9.10
2017-12-10T02:36:11.207Z,9.73
2017-12-10T02:38:39.583Z,10.20
2017-12-10T02:41:07.934Z,9.03
2017-12-10T02:43:36.375Z,9.70
2017-12-10T02:46:04.893Z,9.40
2017-12-10T02:48:33.433Z,10.53
2017-12-10T02:51:01.834Z,10.60
2017-12-10T02:53:30.173Z,9.33
2017-12-10T02:55:58.516Z,9.00
2017-12-10T02:58:27.127Z,9.77
2017-12-10T03:00:55.503Z,8.80
2017-12-10T03:03:23.839Z,8.87
2017-12-10T03:05:52.238Z,8.70
2017-12-10T03:08:20.622Z,8.90
2017-12-10T03:10:49.263Z,8.67
2017-12-10T03:13:17.603Z,9.27
2017-12-10T03:15:45.989Z,9.37
2017-12-10T03:18:14.368Z,9.37
2017-12-10T03:20:42.772Z,9.40
2017-12-10T03:23:11.181Z,9.70
2017-12-10T03:25:39.582Z,9.70
2017-12-10T03:28:07.942Z,9.20
2017-12-10T03:30:36.364Z,9.10
2017-12-10T03:33:04.701Z,9.67
2017-12-10T03:35:33.083Z,8.30
2017-12-10T03:38:01.454Z,8.97
2017-12-10T03:40:29.852Z,9.00
2017-12-10T03:42:58.214Z,8.03
2017-12-10T03:45:26.630Z,8.63
2017-12-10T03:47:55.014Z,10.33
2017-12-10T03:50:23.391Z,9.33
2017-12-10T03:52:51.796Z,8.30
2017-12-10T03:55:20.150Z,9.23
2017-12-10T03:57:48.546Z,9.70
2017-12-10T04:00:16.883Z,8.33
2017-12-10T04:02:45.547Z,8.90
2017-12-10T04:05:13.884Z,9.07
2017-12-10T04:07:42.214Z,10.30
2017-12-10T04:10:10.578Z,8.40
2017-12-10T04:12:40.131Z,7.60
2017-12-10T04:15:08.846Z,8.13
2017-12-10T04:17:37.217Z,9.07
2017-12-10T04:20:05.537Z,8.47
2017-12-10T04:22:34.161Z,8.47
2017-12-10T04:25:02.869Z,8.00
2017-12-10T04:27:31.501Z,7.70
2017-12-10T04:29:59.961Z,8.23
2017-12-10T04:32:28.628Z,9.20
2017-12-10T04:34:57.011Z,8.70
2017-12-10T04:37:25.443Z,7.90
2017-12-10T04:39:54.070Z,8.87
2017-12-10T04:42:22.509Z,8.50
2017-12-10T04:44:50.838Z,8.27
2017-12-10T04:47:19.499Z,8.13
2017-12-10T04:49:47.887Z,7.70
2017-12-10T04:52:16.570Z,9.20
2017-12-10T04:54:44.960Z,7.70
2017-12-10T04:57:13.274Z,7.93
2017-12-10T04:59:41.986Z,7.80
2017-12-10T05:02:10.321Z,7.80
2017-12-10T05:04:38.977Z,8.00
2017-12-10T05:07:07.657Z,8.50
2017-12-10T05:09:35.983Z,7.70
2017-12-10T05:12:04.478Z,8.00
2017-12-10T05:14:32.797Z,8.60
2017-12-10T05:17:01.180Z,7.53
2017-12-10T05:19:29.514Z,7.93
2017-12-10T05:21:58.209Z,8.53
2017-12-10T05:24:26.571Z,8.50
2017-12-10T05:26:55.245Z,8.97
2017-12-10T05:29:23.918Z,7.57
2017-12-10T05:31:52.334Z,7.80
2017-12-10T05:34:20.691Z,8.33
2017-12-10T05:36:49.326Z,7.20
2017-12-10T05:39:17.706Z,7.73
2017-12-10T05:41:46.350Z,8.03
2017-12-10T05:44:15.000Z,7.80
2017-12-10T05:46:43.373Z,7.20
2017-12-10T05:49:13.664Z,8.13
2017-12-10T05:51:43.906Z,7.03
2017-12-10T05:54:14.110Z,6.80
2017-12-10T05:56:42.847Z,7.53
2017-12-10T05:59:11.529Z,7.50
2017-12-10T06:01:39.851Z,7.63
2017-12-10T06:04:08.478Z,7.93
2017-12-10T06:06:36.850Z,8.90
2017-12-10T06:09:04.977Z,7.90
2017-12-10T06:11:33.619Z,8.00
2017-12-10T06:14:02.507Z,7.40
2017-12-10T06:16:31.178Z,7.33
2017-12-10T06:18:59.581Z,8.10
2017-12-10T06:21:28.263Z,7.60
2017-12-10T06:23:56.623Z,8.47
2017-12-10T06:26:25.283Z,8.23
2017-12-10T06:28:53.648Z,7.07
2017-12-10T06:31:21.962Z,7.93
2017-12-10T06:33:50.317Z,8.03
2017-12-10T06:36:18.977Z,7.63
2017-12-10T06:38:47.350Z,8.33
2017-12-10T06:41:16.051Z,7.77
2017-12-10T06:43:44.386Z,8.07
2017-12-10T06:46:14.579Z,7.57
2017-12-10T06:48:42.905Z,8.40
2017-12-10T06:51:11.653Z,7.20
2017-12-10T06:53:40.135Z,7.50
2017-12-10T06:56:11.039Z,7.43
2017-12-10T06:58:39.665Z,8.13
2017-12-10T07:01:08.329Z,7.40
2017-12-10T07:03:36.842Z,7.70
2017-12-10T07:08:38.405Z,7.27
2017-12-10T07:11:06.725Z,6.97
2017-12-10T07:13:35.106Z,6.87
2017-12-10T07:16:03.443Z,7.30
2017-12-10T07:18:32.092Z,7.53
2017-12-10T07:21:00.467Z,7.40
2017-12-10T07:23:28.786Z,7.73
2017-12-10T07:25:57.150Z,7.97
2017-12-10T07:28:25.466Z,7.30
2017-12-10T07:30:53.842Z,7.60
2017-12-10T07:33:22.564Z,7.50
2017-12-10T07:35:50.884Z,7.57
2017-12-10T07:38:19.253Z,7.60
2017-12-10T07:40:47.574Z,7.40
2017-12-10T07:43:16.255Z,7.53
2017-12-10T07:45:44.605Z,8.37
2017-12-10T07:48:12.965Z,7.00
2017-12-10T07:50:41.682Z,8.10
2017-12-10T07:53:12.262Z,7.97
2017-12-10T07:55:41.873Z,8.27
2017-12-10T07:58:10.250Z,7.60
2017-12-10T08:00:44.118Z,7.50
2017-12-10T08:03:12.487Z,8.50
2017-12-10T08:05:41.821Z,7.50
2017-12-10T08:08:11.626Z,8.40
2017-12-10T08:10:41.646Z,7.83
2017-12-10T08:13:13.324Z,8.13
2017-12-10T08:15:42.096Z,7.60
2017-12-10T08:18:12.540Z,8.37
2017-12-10T08:20:40.915Z,7.20
2017-12-10T08:23:09.578Z,8.70
2017-12-10T08:25:37.958Z,7.87
2017-12-10T08:28:08.649Z,8.17
2017-12-10T08:30:37.017Z,8.67
2017-12-10T08:33:06.075Z,8.20
2017-12-10T08:35:34.893Z,7.93
2017-12-10T08:38:15.107Z,7.27
2017-12-10T08:43:51.228Z,7.83
2017-12-10T08:46:28.754Z,7.57
2017-12-10T08:49:13.403Z,8.10
2017-12-10T08:51:42.687Z,7.53
2017-12-10T08:54:11.045Z,7.40
2017-12-10T08:56:39.370Z,7.17
2017-12-10T08:59:07.561Z,7.77
2017-12-10T09:01:36.217Z,7.87
2017-12-10T09:04:04.571Z,7.87
2017-12-10T09:06:33.266Z,7.40
2017-12-10T09:09:01.578Z,6.90
2017-12-10T09:11:34.465Z,8.00
2017-12-10T09:14:03.378Z,7.80
2017-12-10T09:16:32.038Z,7.80
2017-12-10T09:19:00.406Z,7.33
2017-12-10T09:22:05.543Z,7.73
2017-12-10T09:24:34.243Z,8.10
2017-12-10T09:27:03.922Z,7.50
2017-12-10T09:29:32.325Z,7.07
2017-12-10T09:32:01.221Z,7.30
2017-12-10T09:34:29.621Z,7.63
2017-12-10T09:36:58.935Z,7.50
2017-12-10T09:39:34.753Z,7.57
2017-12-10T09:42:13.870Z,7.20
2017-12-10T09:44:55.375Z,7.27
2017-12-10T09:47:37.689Z,7.00
2017-12-10T09:50:20.906Z,8.43
2017-12-10T09:53:02.134Z,7.07
2017-12-10T09:55:31.366Z,7.30
2017-12-10T09:58:11.079Z,7.03
2017-12-10T10:00:42.266Z,8.30
2017-12-10T10:03:25.405Z,7.93
2017-12-10T10:06:10.211Z,8.10
2017-12-10T10:08:51.868Z,10.60
2017-12-10T10:11:25.831Z,9.27
2017-12-10T10:13:56.544Z,8.37
2017-12-10T10:16:35.837Z,8.97
2017-12-10T10:19:14.664Z,8.67
2017-12-10T10:21:57.116Z,7.40
2017-12-10T10:24:37.111Z,7.20
2017-12-10T10:27:15.564Z,7.13
2017-12-10T10:29:54.779Z,7.43
2017-12-10T10:35:16.175Z,6.30
2017-12-10T10:37:57.291Z,5.73
2017-12-10T10:40:38.324Z,5.40
2017-12-10T10:43:15.925Z,6.23
2017-12-10T10:45:51.753Z,5.30
2017-12-10T10:48:33.065Z,6.40
2017-12-10T10:51:14.218Z,5.60
2017-12-10T10:53:57.851Z,5.10
2017-12-10T10:56:36.511Z,4.87
2017-12-10T10:59:05.753Z,4.13
2017-12-10T11:01:41.220Z,4.40
2017-12-10T11:04:14.277Z,4.73
2017-12-10T11:06:46.574Z,4.70
2017-12-10T11:12:01.730Z,4.13
2017-12-10T11:14:39.401Z,4.20
2017-12-10T11:17:16.625Z,4.03
2017-12-10T11:19:54.970Z,3.70
2017-12-10T11:22:34.786Z,3.60
2017-12-10T11:25:17.170Z,4.83
2017-12-10T11:27:54.471Z,4.30
2017-12-10T11:30:30.298Z,4.73
2017-12-10T11:33:05.314Z,5.17
2017-12-10T11:35:47.049Z,4.93
2017-12-10T11:38:27.678Z,4.40
2017-12-10T11:41:07.988Z,4.07
2017-12-10T11:43:49.195Z,4.47
2017-12-10T11:46:25.279Z,3.73
2017-12-10T11:49:06.130Z,4.30
2017-12-10T11:51:44.672Z,3.87
2017-12-10T11:54:23.139Z,3.83
2017-12-10T11:57:04.182Z,3.30
2017-12-10T11:59:47.920Z,3.67
2017-12-10T12:05:02.082Z,3.23
2017-12-10T12:07:37.649Z,3.00
2017-12-10T12:10:19.122Z,2.70
2017-12-10T12:15:43.997Z,2.67
2017-12-10T12:18:13.513Z,2.80
2017-12-10T12:20:42.227Z,2.67
2017-12-10T12:23:10.574Z,3.67
2017-12-10T12:25:39.324Z,2.20
2017-12-10T12:28:07.778Z,2.30
2017-12-10T12:30:37.014Z,2.43
2017-12-10T12:33:14.040Z,2.70
